createdAt,value
2018-03-24T00:00:54.047Z,57.84
2018-03-24T00:01:54.056Z,57.94
2018-03-24T00:02:54.074Z,57.78
2018-03-24T00:03:53.799Z,57.78
2018-03-24T00:04:54.090Z,57.78
2018-03-24T00:05:54.106Z,57.68
2018-03-24T00:06:54.119Z,57.75
2018-03-24T00:07:53.847Z,57.75
2018-03-24T00:08:54.150Z,57.94
2018-03-24T00:09:54.156Z,57.94
2018-03-24T00:10:54.170Z,57.94
2018-03-24T00:11:53.898Z,57.84
2018-03-24T00:12:53.960Z,57.84
2018-03-24T00:13:53.925Z,57.75
2018-03-24T00:14:54.222Z,57.65
2018-03-24T00:15:53.945Z,57.75
2018-03-24T00:16:54.249Z,57.84
2018-03-24T00:17:54.256Z,57.75
2018-03-24T00:18:53.982Z,57.84
2018-03-24T00:19:53.993Z,57.75
2018-03-24T00:20:54.294Z,57.65
2018-03-24T00:21:54.020Z,57.56
2018-03-24T00:22:54.324Z,58.03
2018-03-24T00:23:54.324Z,57.94
2018-03-24T00:24:54.351Z,58.51
2018-03-24T00:25:54.069Z,58.41
2018-03-24T00:26:54.362Z,58.51
2018-03-24T00:27:54.428Z,58.41
2018-03-24T00:28:54.103Z,58.51
2018-03-24T00:29:54.411Z,58.32
2018-03-24T00:30:54.412Z,58.41
2018-03-24T00:31:54.141Z,58.32
2018-03-24T00:32:54.489Z,58.32
2018-03-24T00:33:54.172Z,58.22
2018-03-24T00:34:54.466Z,57.94
2018-03-24T00:35:54.192Z,58.41
2018-03-24T00:36:54.486Z,58.41
2018-03-24T00:37:54.214Z,58.03
2018-03-24T00:38:54.516Z,58.22
2018-03-24T00:39:54.521Z,58.41
2018-03-24T00:40:54.254Z,58.22
2018-03-24T00:41:54.549Z,58.32
2018-03-24T00:42:54.326Z,58.03
2018-03-24T00:43:54.286Z,58.13
2018-03-24T00:44:54.587Z,58.32
2018-03-24T00:45:54.312Z,58.51
2018-03-24T00:46:54.324Z,58.89
2018-03-24T00:47:54.618Z,58.7
2018-03-24T00:48:54.636Z,58.8
2018-03-24T00:49:54.646Z,58.8
2018-03-24T00:50:54.655Z,58.8
2018-03-24T00:51:54.670Z,58.51
2018-03-24T00:52:54.729Z,58.61
2018-03-24T00:53:54.408Z,58.8
2018-03-24T00:54:54.706Z,58.61
2018-03-24T00:55:54.432Z,58.51
2018-03-24T00:56:54.725Z,58.98
2018-03-24T00:57:54.743Z,58.7
2018-03-24T00:58:54.469Z,58.7
2018-03-24T00:59:54.765Z,58.7
2018-03-24T01:00:54.779Z,58.89
2018-03-24T01:01:54.788Z,58.8
2018-03-24T01:02:54.850Z,59.08
2018-03-24T01:03:54.816Z,58.7
2018-03-24T01:04:54.822Z,58.61
2018-03-24T01:05:54.552Z,58.51
2018-03-24T01:06:54.894Z,58.51
2018-03-24T01:07:54.623Z,58.7
2018-03-24T01:08:54.594Z,58.89
2018-03-24T01:09:54.885Z,58.89
2018-03-24T01:10:54.893Z,59.08
2018-03-24T01:11:54.623Z,58.89
2018-03-24T01:12:54.921Z,58.89
2018-03-24T01:13:54.933Z,59.46
2018-03-24T01:14:54.942Z,59.55
2018-03-24T01:15:54.952Z,58.89
2018-03-24T01:16:54.686Z,59.55
2018-03-24T01:17:55.029Z,59.27
2018-03-24T01:18:54.993Z,59.27
2018-03-24T01:19:55.005Z,59.27
2018-03-24T01:20:55.015Z,59.27
2018-03-24T01:21:55.025Z,59.17
2018-03-24T01:22:54.804Z,59.36
2018-03-24T01:23:54.764Z,59.36
2018-03-24T01:24:55.064Z,59.36
2018-03-24T01:25:55.074Z,59.36
2018-03-24T01:26:55.091Z,59.17
2018-03-24T01:27:54.866Z,59.93
2018-03-24T01:28:55.106Z,59.93
2018-03-24T01:29:55.131Z,59.93
2018-03-24T01:30:55.133Z,59.55
2018-03-24T01:31:55.147Z,59.84
2018-03-24T01:32:54.873Z,59.65
2018-03-24T01:33:55.166Z,59.55
2018-03-24T01:34:55.182Z,59.74
2018-03-24T01:35:55.191Z,59.55
2018-03-24T01:36:54.920Z,59.55
2018-03-24T01:37:55.217Z,59.65
2018-03-24T01:38:54.945Z,59.65
2018-03-24T01:39:55.243Z,59.65
2018-03-24T01:40:54.968Z,59.65
2018-03-24T01:41:55.264Z,59.65
2018-03-24T01:42:54.992Z,59.55
2018-03-24T01:43:55.284Z,59.36
2018-03-24T01:44:55.309Z,59.65
2018-03-24T01:45:55.309Z,59.71
2018-03-24T01:46:55.324Z,59.52
2018-03-24T01:47:55.340Z,59.55
2018-03-24T01:48:55.347Z,59.65
2018-03-24T01:49:55.075Z,59.55
2018-03-24T01:50:55.373Z,59.46
2018-03-24T01:51:55.095Z,59.52
2018-03-24T01:52:55.393Z,59.55
2018-03-24T01:53:55.408Z,59.65
2018-03-24T01:54:55.134Z,59.71
2018-03-24T01:55:55.142Z,59.91
2018-03-24T01:56:55.438Z,59.81
2018-03-24T01:57:55.450Z,59.84
2018-03-24T01:58:55.182Z,59.81
2018-03-24T01:59:55.474Z,60.22
2018-03-24T02:00:55.206Z,59.74
2018-03-24T02:01:55.214Z,59.84
2018-03-24T02:02:55.226Z,59.93
2018-03-24T02:03:55.525Z,59.65
2018-03-24T02:04:55.533Z,59.81
2018-03-24T02:05:55.270Z,59.84
2018-03-24T02:06:55.563Z,59.71
2018-03-24T02:07:55.569Z,59.84
2018-03-24T02:08:55.588Z,59.71
2018-03-24T02:09:55.588Z,59.81
2018-03-24T02:10:55.604Z,60.19
2018-03-24T02:11:55.654Z,59.81
2018-03-24T02:12:55.627Z,59.65
2018-03-24T02:13:55.644Z,59.81
2018-03-24T02:14:55.651Z,59.71
2018-03-24T02:15:55.377Z,59.71
2018-03-24T02:16:55.676Z,59.71
2018-03-24T02:17:55.403Z,59.91
2018-03-24T02:18:55.702Z,59.81
2018-03-24T02:19:55.433Z,59.81
2018-03-24T02:20:55.437Z,59.81
2018-03-24T02:21:55.730Z,59.91
2018-03-24T02:22:55.743Z,59.71
2018-03-24T02:23:55.759Z,59.91
2018-03-24T02:24:55.483Z,59.81
2018-03-24T02:25:55.781Z,59.71
2018-03-24T02:26:55.789Z,59.81
2018-03-24T02:27:55.800Z,59.81
2018-03-24T02:28:55.815Z,59.62
2018-03-24T02:29:55.826Z,59.81
2018-03-24T02:30:55.858Z,59.81
2018-03-24T02:31:55.851Z,59.62
2018-03-24T02:32:55.862Z,59.71
2018-03-24T02:33:55.873Z,59.71
2018-03-24T02:34:55.885Z,59.62
2018-03-24T02:35:55.897Z,59.81
2018-03-24T02:36:55.909Z,60
2018-03-24T02:37:55.931Z,59.91
2018-03-24T02:38:55.654Z,60.19
2018-03-24T02:39:55.659Z,60.28
2018-03-24T02:40:55.670Z,60.1
2018-03-24T02:41:55.969Z,60.19
2018-03-24T02:42:55.990Z,60.19
2018-03-24T02:43:55.992Z,60.28
2018-03-24T02:44:56.006Z,60.28
2018-03-24T02:45:55.728Z,60.47
2018-03-24T02:46:56.025Z,60.19
2018-03-24T02:47:55.752Z,60
2018-03-24T02:48:55.761Z,60.1
2018-03-24T02:49:56.061Z,60.57
2018-03-24T02:50:56.070Z,60.57
2018-03-24T02:51:55.798Z,60.38
2018-03-24T02:52:56.095Z,60.28
2018-03-24T02:53:55.822Z,60.1
2018-03-24T02:54:56.120Z,60.19
2018-03-24T02:55:56.127Z,60.57
2018-03-24T02:56:56.139Z,60.57
2018-03-24T02:57:55.872Z,60.38
2018-03-24T02:58:56.212Z,60.19
2018-03-24T02:59:55.892Z,60.57
2018-03-24T03:00:56.190Z,60.66
2018-03-24T03:01:55.913Z,60.47
2018-03-24T03:02:55.926Z,60.38
2018-03-24T03:03:56.226Z,60.57
2018-03-24T03:04:56.246Z,60.57
2018-03-24T03:05:56.247Z,60.66
2018-03-24T03:06:56.254Z,60.38
2018-03-24T03:07:55.986Z,60.57
2018-03-24T03:08:56.278Z,60.28
2018-03-24T03:09:56.291Z,60.38
2018-03-24T03:10:56.018Z,60.47
2018-03-24T03:11:56.314Z,60.28
2018-03-24T03:12:56.327Z,60.28
2018-03-24T03:13:56.386Z,60.47
2018-03-24T03:14:56.354Z,60.38
2018-03-24T03:15:56.074Z,60
2018-03-24T03:16:56.087Z,60.38
2018-03-24T03:17:56.380Z,60.38
2018-03-24T03:18:56.109Z,60
2018-03-24T03:19:56.402Z,60
2018-03-24T03:20:56.417Z,60.57
2018-03-24T03:21:56.145Z,60.47
2018-03-24T03:22:56.442Z,60.1
2018-03-24T03:23:56.502Z,60.47
2018-03-24T03:24:56.180Z,60.38
2018-03-24T03:25:56.475Z,60
2018-03-24T03:26:56.497Z,60
2018-03-24T03:27:56.647Z,60.85
2018-03-24T03:28:56.559Z,60.38
2018-03-24T03:29:56.522Z,60.95
2018-03-24T03:30:56.536Z,60.57
2018-03-24T03:31:56.545Z,60.76
2018-03-24T03:32:56.574Z,60.76
2018-03-24T03:33:56.281Z,60.76
2018-03-24T03:34:56.578Z,60.76
2018-03-24T03:35:56.308Z,60.76
2018-03-24T03:36:56.609Z,60.76
2018-03-24T03:37:56.608Z,60.76
2018-03-24T03:38:56.340Z,60.85
2018-03-24T03:39:56.351Z,60.85
2018-03-24T03:40:56.362Z,60.76
2018-03-24T03:41:56.658Z,60.85
2018-03-24T03:42:56.667Z,60.66
2018-03-24T03:43:56.395Z,60.66
2018-03-24T03:44:56.708Z,60.76
2018-03-24T03:45:56.420Z,60.66
2018-03-24T03:46:56.716Z,60.47
2018-03-24T03:47:56.729Z,60.76
2018-03-24T03:48:56.736Z,60.57
2018-03-24T03:49:56.462Z,60.57
2018-03-24T03:50:56.475Z,60.38
2018-03-24T03:51:56.769Z,60.38
2018-03-24T03:52:56.785Z,60.66
2018-03-24T03:53:56.794Z,60.76
2018-03-24T03:54:56.520Z,60.66
2018-03-24T03:55:56.814Z,60.85
2018-03-24T03:56:56.830Z,60.76
2018-03-24T03:57:56.837Z,60.76
2018-03-24T03:58:56.847Z,60.85
2018-03-24T03:59:56.863Z,60.66
2018-03-24T04:00:56.879Z,60.66
2018-03-24T04:01:56.603Z,60.76
2018-03-24T04:02:56.894Z,60.76
2018-03-24T04:03:56.906Z,60.76
2018-03-24T04:04:56.920Z,60.76
2018-03-24T04:05:56.928Z,60.57
2018-03-24T04:06:56.657Z,60.47
2018-03-24T04:07:56.678Z,60.19
2018-03-24T04:08:56.967Z,60.38
2018-03-24T04:09:57.029Z,60.47
2018-03-24T04:10:56.702Z,60.47
2018-03-24T04:11:56.715Z,60.76
2018-03-24T04:12:57.010Z,60.38
2018-03-24T04:13:56.735Z,60.47
2018-03-24T04:14:57.030Z,60.66
2018-03-24T04:15:57.042Z,60.57
2018-03-24T04:16:57.056Z,60.57
2018-03-24T04:17:56.782Z,60.76
2018-03-24T04:18:57.078Z,60.57
2018-03-24T04:19:57.136Z,60.95
2018-03-24T04:20:57.104Z,60.76
2018-03-24T04:21:56.825Z,60.85
2018-03-24T04:22:56.836Z,60.95
2018-03-24T04:23:57.134Z,60.95
2018-03-24T04:24:57.143Z,60.95
2018-03-24T04:25:57.154Z,61.04
2018-03-24T04:26:57.164Z,60.76
2018-03-24T04:27:56.894Z,60.95
2018-03-24T04:28:57.193Z,60.95
2018-03-24T04:29:57.200Z,60.85
2018-03-24T04:30:57.214Z,60.95
2018-03-24T04:31:57.227Z,60.66
2018-03-24T04:32:56.950Z,60.85
2018-03-24T04:33:57.246Z,60.82
2018-03-24T04:34:57.259Z,60.76
2018-03-24T04:35:57.269Z,60.82
2018-03-24T04:36:57.279Z,60.73
2018-03-24T04:37:57.291Z,60.44
2018-03-24T04:38:57.020Z,60.53
2018-03-24T04:39:57.028Z,60.85
2018-03-24T04:40:57.322Z,60.82
2018-03-24T04:41:57.339Z,60.82
2018-03-24T04:42:57.346Z,60.95
2018-03-24T04:43:57.357Z,60.92
2018-03-24T04:44:57.369Z,60.92
2018-03-24T04:45:57.096Z,60.92
2018-03-24T04:46:57.393Z,60.82
2018-03-24T04:47:57.118Z,60.92
2018-03-24T04:48:57.419Z,60.82
2018-03-24T04:49:57.425Z,60.92
2018-03-24T04:50:57.439Z,60.92
2018-03-24T04:51:57.447Z,60.92
2018-03-24T04:52:57.175Z,60.92
2018-03-24T04:53:57.469Z,60.82
2018-03-24T04:54:57.481Z,61.11
2018-03-24T04:55:57.493Z,60.73
2018-03-24T04:56:57.506Z,60.63
2018-03-24T04:57:57.230Z,61.01
2018-03-24T04:58:57.524Z,60.95
2018-03-24T04:59:57.539Z,60.82
2018-03-24T05:00:57.544Z,61.11
2018-03-24T05:01:57.561Z,60.73
2018-03-24T05:02:57.284Z,60.92
2018-03-24T05:03:57.656Z,60.73
2018-03-24T05:04:57.587Z,61.11
2018-03-24T05:05:57.320Z,60.92
2018-03-24T05:06:57.614Z,61.11
2018-03-24T05:07:57.339Z,61.01
2018-03-24T05:08:57.635Z,61.01
2018-03-24T05:09:57.649Z,61.01
2018-03-24T05:10:57.656Z,61.11
2018-03-24T05:11:57.668Z,61.11
2018-03-24T05:12:57.677Z,61.01
2018-03-24T05:13:57.424Z,61.49
2018-03-24T05:14:57.704Z,61.01
2018-03-24T05:15:57.430Z,60.92
2018-03-24T05:16:57.723Z,61.11
2018-03-24T05:17:57.734Z,60.92
2018-03-24T05:18:57.748Z,60.92
2018-03-24T05:19:57.755Z,60.92
2018-03-24T05:20:57.774Z,60.92
2018-03-24T05:21:57.783Z,61.01
2018-03-24T05:22:57.797Z,61.01
2018-03-24T05:23:57.799Z,60.82
2018-03-24T05:24:57.825Z,61.01
2018-03-24T05:25:57.820Z,61.01
2018-03-24T05:26:57.837Z,61.01
2018-03-24T05:27:57.845Z,61.11
2018-03-24T05:28:57.942Z,60.92
2018-03-24T05:29:57.866Z,61.01
2018-03-24T05:30:57.882Z,61.2
2018-03-24T05:31:57.889Z,61.01
2018-03-24T05:32:57.904Z,61.11
2018-03-24T05:33:57.626Z,61.11
2018-03-24T05:34:57.921Z,61.11
2018-03-24T05:35:57.931Z,61.2
2018-03-24T05:36:57.666Z,61.2
2018-03-24T05:37:57.959Z,61.3
2018-03-24T05:38:57.966Z,61.11
2018-03-24T05:39:57.693Z,61.11
2018-03-24T05:40:57.991Z,61.11
2018-03-24T05:41:57.781Z,61.3
2018-03-24T05:42:58.008Z,61.2
2018-03-24T05:43:58.024Z,61.2
2018-03-24T05:44:58.036Z,61.2
2018-03-24T05:45:58.046Z,61.11
2018-03-24T05:46:58.058Z,61.2
2018-03-24T05:47:57.784Z,61.2
2018-03-24T05:48:58.076Z,61.11
2018-03-24T05:49:58.088Z,61.11
2018-03-24T05:50:57.815Z,61.01
2018-03-24T05:51:57.831Z,61.11
2018-03-24T05:52:58.125Z,61.01
2018-03-24T05:53:58.131Z,61.2
2018-03-24T05:54:57.865Z,61.11
2018-03-24T05:55:57.881Z,61.2
2018-03-24T05:56:58.165Z,61.49
2018-03-24T05:57:58.183Z,61.39
2018-03-24T05:58:58.186Z,61.2
2018-03-24T05:59:58.196Z,61.11
2018-03-24T06:00:57.928Z,61.3
2018-03-24T06:01:58.395Z,61.2
2018-03-24T06:02:57.952Z,61.2
2018-03-24T06:03:58.302Z,61.2
2018-03-24T06:04:58.303Z,61.2
2018-03-24T06:05:58.266Z,61.11
2018-03-24T06:06:58.273Z,61.11
2018-03-24T06:07:58.004Z,61.2
2018-03-24T06:08:58.296Z,61.11
2018-03-24T06:09:58.023Z,61.2
2018-03-24T06:10:58.033Z,61.2
2018-03-24T06:11:58.327Z,61.2
2018-03-24T06:12:58.056Z,61.2
2018-03-24T06:13:58.566Z,61.11
2018-03-24T06:14:58.079Z,61.11
2018-03-24T06:15:58.376Z,61.68
2018-03-24T06:16:58.464Z,61.68
2018-03-24T06:17:58.402Z,61.3
2018-03-24T06:18:58.410Z,61.3
2018-03-24T06:19:58.419Z,61.58
2018-03-24T06:20:58.174Z,61.39
2018-03-24T06:21:58.438Z,61.11
2018-03-24T06:22:58.169Z,61.04
2018-03-24T06:23:58.197Z,61.61
2018-03-24T06:24:58.548Z,61.33
2018-03-24T06:25:58.213Z,61.71
2018-03-24T06:26:58.258Z,61.71
2018-03-24T06:27:58.280Z,61.61
2018-03-24T06:28:58.517Z,61.61
2018-03-24T06:29:58.244Z,61.61
2018-03-24T06:30:58.511Z,61.71
2018-03-24T06:31:58.577Z,61.61
2018-03-24T06:32:58.564Z,61.61
2018-03-24T06:33:58.573Z,61.61
2018-03-24T06:34:58.297Z,61.71
2018-03-24T06:35:58.310Z,61.61
2018-03-24T06:36:58.604Z,61.71
2018-03-24T06:37:58.616Z,61.71
2018-03-24T06:38:58.346Z,61.61
2018-03-24T06:39:58.393Z,61.61
2018-03-24T06:40:58.693Z,61.33
2018-03-24T06:41:58.670Z,61.33
2018-03-24T06:42:58.399Z,61.61
2018-03-24T06:43:58.398Z,61.52
2018-03-24T06:44:58.531Z,61.52
2018-03-24T06:45:58.723Z,61.33
2018-03-24T06:46:58.723Z,61.52
2018-03-24T06:47:58.450Z,61.52
2018-03-24T06:48:58.453Z,61.71
2018-03-24T06:49:58.779Z,61.33
2018-03-24T06:50:58.489Z,61.33
2018-03-24T06:51:58.497Z,61.23
2018-03-24T06:52:58.512Z,61.23
2018-03-24T06:53:58.794Z,61.52
2018-03-24T06:54:58.537Z,61.52
2018-03-24T06:55:58.607Z,61.52
2018-03-24T06:56:58.834Z,61.52
2018-03-24T06:57:58.844Z,61.23
2018-03-24T06:58:58.594Z,61.33
2018-03-24T06:59:58.973Z,61.8
2018-03-24T07:00:58.612Z,61.36
2018-03-24T07:01:58.913Z,61.36
2018-03-24T07:02:58.892Z,61.36
2018-03-24T07:03:58.904Z,61.74
2018-03-24T07:04:58.917Z,61.36
2018-03-24T07:05:59.004Z,61.74
2018-03-24T07:06:58.665Z,61.26
2018-03-24T07:07:58.678Z,61.55
2018-03-24T07:08:58.968Z,61.55
2018-03-24T07:09:58.754Z,61.26
2018-03-24T07:10:59.062Z,61.36
2018-03-24T07:11:59.001Z,61.55
2018-03-24T07:12:58.730Z,61.26
2018-03-24T07:13:58.744Z,61.36
2018-03-24T07:14:58.754Z,61.45
2018-03-24T07:15:59.051Z,61.65
2018-03-24T07:16:59.049Z,61.45
2018-03-24T07:17:58.777Z,61.36
2018-03-24T07:18:59.086Z,61.26
2018-03-24T07:19:58.798Z,61.55
2018-03-24T07:20:59.095Z,61.36
2018-03-24T07:21:59.103Z,61.36
2018-03-24T07:22:58.942Z,61.39
2018-03-24T07:23:58.843Z,61.77
2018-03-24T07:24:59.137Z,61.29
2018-03-24T07:25:59.147Z,61.29
2018-03-24T07:26:58.880Z,61.48
2018-03-24T07:27:58.889Z,61.58
2018-03-24T07:28:59.193Z,61.39
2018-03-24T07:29:59.201Z,61.68
2018-03-24T07:30:58.923Z,61.68
2018-03-24T07:31:58.936Z,61.77
2018-03-24T07:32:58.951Z,61.87
2018-03-24T07:33:59.264Z,61.48
2018-03-24T07:34:58.972Z,61.48
2018-03-24T07:35:58.980Z,61.77
2018-03-24T07:36:59.277Z,61.8
2018-03-24T07:37:59.288Z,61.9
2018-03-24T07:38:59.297Z,61.42
2018-03-24T07:39:59.311Z,61.52
2018-03-24T07:40:59.327Z,61.71
2018-03-24T07:41:59.051Z,61.8
2018-03-24T07:42:59.352Z,61.52
2018-03-24T07:43:59.359Z,61.42
2018-03-24T07:44:59.371Z,61.42
2018-03-24T07:45:59.391Z,61.42
2018-03-24T07:46:59.396Z,61.32
2018-03-24T07:47:59.405Z,61.32
2018-03-24T07:48:59.422Z,61.32
2018-03-24T07:49:59.432Z,61.52
2018-03-24T07:50:59.440Z,61.61
2018-03-24T07:51:59.171Z,60.94
2018-03-24T07:52:59.471Z,61.04
2018-03-24T07:53:59.198Z,60.88
2018-03-24T07:54:59.489Z,61.07
2018-03-24T07:55:59.505Z,61.07
2018-03-24T07:56:59.511Z,60.97
2018-03-24T07:57:59.242Z,60.78
2018-03-24T07:58:59.537Z,61.07
2018-03-24T07:59:59.264Z,60.88
2018-03-24T08:00:59.277Z,61.16
2018-03-24T08:01:59.574Z,60.78
2018-03-24T08:02:59.592Z,60.69
2018-03-24T08:03:59.594Z,60.88
2018-03-24T08:04:59.606Z,60.31
2018-03-24T08:05:59.672Z,60.88
2018-03-24T08:06:59.634Z,60.91
2018-03-24T08:07:59.646Z,60.91
2018-03-24T08:08:59.661Z,60.44
2018-03-24T08:09:59.669Z,60.24
2018-03-24T08:10:59.746Z,60.44
2018-03-24T08:11:59.693Z,60.44
2018-03-24T08:12:59.708Z,60.24
2018-03-24T08:13:59.716Z,60.05
2018-03-24T08:14:59.449Z,59.86
2018-03-24T08:15:59.461Z,59.86
2018-03-24T08:16:59.756Z,60.05
2018-03-24T08:17:59.770Z,60.24
2018-03-24T08:18:59.500Z,60.34
2018-03-24T08:19:59.510Z,59.67
2018-03-24T08:20:59.807Z,59.86
2018-03-24T08:21:59.820Z,59.58
2018-03-24T08:22:59.881Z,59.32
2018-03-24T08:23:59.840Z,59.42
2018-03-24T08:24:59.860Z,59.13
2018-03-24T08:25:59.868Z,58.65
2018-03-24T08:26:59.595Z,59.03
2018-03-24T08:27:59.902Z,58.75
2018-03-24T08:28:59.907Z,58.84
2018-03-24T08:29:59.916Z,59.03
2018-03-24T08:30:59.933Z,58.65
2018-03-24T08:31:59.942Z,58.47
2018-03-24T08:32:59.957Z,58.47
2018-03-24T08:33:59.687Z,58.47
2018-03-24T08:34:59.700Z,58.47
2018-03-24T08:36:00.043Z,58.47
2018-03-24T08:37:00.015Z,58.59
2018-03-24T08:37:59.736Z,58.59
2018-03-24T08:39:00.035Z,58.59
2018-03-24T08:40:00.046Z,58.59
2018-03-24T08:40:59.777Z,58.59
2018-03-24T08:42:00.074Z,57.64
2018-03-24T08:42:59.803Z,57.82
2018-03-24T08:44:00.108Z,57.82
2018-03-24T08:45:00.115Z,57.64
2018-03-24T08:46:00.128Z,58.11
2018-03-24T08:47:00.140Z,57.92
2018-03-24T08:48:00.152Z,57.92
2018-03-24T08:49:00.171Z,57.82
2018-03-24T08:50:00.185Z,57.86
2018-03-24T08:51:00.243Z,58.24
2018-03-24T08:52:00.204Z,57.38
2018-03-24T08:53:00.227Z,57.48
2018-03-24T08:54:00.246Z,57.09
2018-03-24T08:55:00.245Z,57.09
2018-03-24T08:56:00.026Z,56.81
2018-03-24T08:57:00.273Z,57
2018-03-24T08:58:00.003Z,56.81
2018-03-24T08:59:00.015Z,56.71
2018-03-24T09:00:00.312Z,56.81
2018-03-24T09:01:00.041Z,56.71
2018-03-24T09:02:00.383Z,56.74
2018-03-24T09:03:00.353Z,56.84
2018-03-24T09:04:00.369Z,57.12
2018-03-24T09:05:00.386Z,56.65
2018-03-24T09:06:00.394Z,56.46
2018-03-24T09:07:00.409Z,56.74
2018-03-24T09:08:00.426Z,56.36
2018-03-24T09:09:00.439Z,56.26
2018-03-24T09:10:00.452Z,56.46
2018-03-24T09:11:00.468Z,56.26
2018-03-24T09:12:00.480Z,56.46
2018-03-24T09:13:00.490Z,56.65
2018-03-24T09:14:00.521Z,56.65
2018-03-24T09:15:00.292Z,56.55
2018-03-24T09:16:00.533Z,56.58
2018-03-24T09:17:00.553Z,56.48
2018-03-24T09:18:00.565Z,56.38
2018-03-24T09:19:00.576Z,56.38
2018-03-24T09:20:00.597Z,56.77
2018-03-24T09:21:00.614Z,55.62
2018-03-24T09:22:00.621Z,55.34
2018-03-24T09:23:00.350Z,55.15
2018-03-24T09:24:00.654Z,54.77
2018-03-24T09:25:00.376Z,55.15
2018-03-24T09:26:00.681Z,54.96
2018-03-24T09:27:00.692Z,54.29
2018-03-24T09:28:00.797Z,54.32
2018-03-24T09:29:00.715Z,54.03
2018-03-24T09:30:00.448Z,54.32
2018-03-24T09:31:00.751Z,54.5
2018-03-24T09:32:00.761Z,53.45
2018-03-24T09:33:00.777Z,54.41
2018-03-24T09:34:00.793Z,53.74
2018-03-24T09:35:00.839Z,53.93
2018-03-24T09:36:00.821Z,53.74
2018-03-24T09:37:00.831Z,53.08
2018-03-24T09:38:00.571Z,53.55
2018-03-24T09:39:00.864Z,53.65
2018-03-24T09:40:00.884Z,53.65
2018-03-24T09:41:00.614Z,53.36
2018-03-24T09:42:00.628Z,54.41
2018-03-24T09:43:00.920Z,53.84
2018-03-24T09:44:00.935Z,53.74
2018-03-24T09:45:00.954Z,52.59
2018-03-24T09:46:00.969Z,52.88
2018-03-24T09:47:00.698Z,52.88
2018-03-24T09:48:00.715Z,53.39
2018-03-24T09:49:01.010Z,53
2018-03-24T09:50:01.026Z,52.62
2018-03-24T09:51:00.756Z,52.81
2018-03-24T09:52:01.114Z,53.39
2018-03-24T09:53:01.072Z,52.81
2018-03-24T09:54:01.088Z,52.62
2018-03-24T09:55:01.100Z,53.2
2018-03-24T09:56:01.126Z,53.1
2018-03-24T09:57:00.847Z,52.72
2018-03-24T09:58:00.864Z,53
2018-03-24T09:59:01.164Z,52.75
2018-03-24T10:00:01.176Z,52.46
2018-03-24T10:01:01.196Z,52.36
2018-03-24T10:02:01.219Z,52.36
2018-03-24T10:03:00.937Z,51.98
2018-03-24T10:04:01.238Z,52.08
2018-03-24T10:05:01.252Z,52.26
2018-03-24T10:06:01.269Z,52.17
2018-03-24T10:07:01.000Z,51.98
2018-03-24T10:08:01.302Z,51.79
2018-03-24T10:09:01.316Z,51.79
2018-03-24T10:10:01.050Z,51.31
2018-03-24T10:11:01.376Z,51.41
2018-03-24T10:12:01.412Z,51.21
2018-03-24T10:13:01.382Z,51.34
2018-03-24T10:14:01.398Z,51.05
2018-03-24T10:15:01.128Z,50.95
2018-03-24T10:16:01.422Z,50.95
2018-03-24T10:17:01.437Z,51.05
2018-03-24T10:18:01.178Z,50.76
2018-03-24T10:19:01.472Z,50.67
2018-03-24T10:20:01.203Z,50.09
2018-03-24T10:21:01.504Z,50.67
2018-03-24T10:22:01.520Z,50.38
2018-03-24T10:23:01.534Z,50.48
2018-03-24T10:24:01.272Z,50.48
2018-03-24T10:25:01.566Z,50.7
2018-03-24T10:26:01.584Z,50.12
2018-03-24T10:27:01.603Z,50.31
2018-03-24T10:28:01.611Z,49.64
2018-03-24T10:29:01.352Z,49.16
2018-03-24T10:30:01.643Z,49.55
2018-03-24T10:31:01.661Z,48.97
2018-03-24T10:32:01.403Z,48.59
2018-03-24T10:33:01.695Z,48.39
2018-03-24T10:34:01.430Z,48.3
2018-03-24T10:35:01.736Z,48.39
2018-03-24T10:36:01.461Z,48.3
2018-03-24T10:37:01.763Z,48.23
2018-03-24T10:38:01.775Z,48.04
2018-03-24T10:39:01.800Z,48.04
2018-03-24T10:40:01.813Z,48.13
2018-03-24T10:41:01.540Z,48.42
2018-03-24T10:42:01.556Z,47.85
2018-03-24T10:43:01.574Z,47.66
2018-03-24T10:44:01.871Z,47.27
2018-03-24T10:45:01.607Z,47.27
2018-03-24T10:46:01.907Z,47.18
2018-03-24T10:47:01.933Z,47.47
2018-03-24T10:48:01.658Z,47.08
2018-03-24T10:49:01.956Z,47.39
2018-03-24T10:50:01.977Z,47.01
2018-03-24T10:51:01.710Z,47.3
2018-03-24T10:52:02.072Z,47.11
2018-03-24T10:53:02.024Z,47.11
2018-03-24T10:54:01.760Z,46.91
2018-03-24T10:55:02.062Z,46.72
2018-03-24T10:56:02.075Z,46.72
2018-03-24T10:57:02.090Z,46.53
2018-03-24T10:58:02.187Z,46.25
2018-03-24T10:59:02.183Z,46.62
2018-03-24T11:00:02.141Z,46.65
2018-03-24T11:01:02.162Z,46.26
2018-03-24T11:02:02.207Z,45.98
2018-03-24T11:03:02.208Z,45.79
2018-03-24T11:04:02.210Z,45.21
2018-03-24T11:05:02.230Z,45.4
2018-03-24T11:06:02.254Z,45.4
2018-03-24T11:07:02.263Z,45.21
2018-03-24T11:08:01.997Z,45.43
2018-03-24T11:09:02.302Z,45.62
2018-03-24T11:10:02.031Z,45.72
2018-03-24T11:11:02.051Z,45.62
2018-03-24T11:12:02.349Z,45.23
2018-03-24T11:13:02.087Z,44.85
2018-03-24T11:14:02.385Z,44.37
2018-03-24T11:15:02.407Z,43.99
2018-03-24T11:16:02.422Z,43.7
2018-03-24T11:17:02.436Z,43.23
2018-03-24T11:18:02.176Z,43.41
2018-03-24T11:19:02.480Z,43.51
2018-03-24T11:20:02.493Z,43.51
2018-03-24T11:21:02.508Z,43.13
2018-03-24T11:22:02.526Z,43.03
2018-03-24T11:23:02.548Z,43.32
2018-03-24T11:24:02.562Z,43.82
2018-03-24T11:25:02.582Z,42.94
2018-03-24T11:26:02.602Z,43.32
2018-03-24T11:27:02.626Z,42.84
2018-03-24T11:28:02.698Z,43.32
2018-03-24T11:29:02.370Z,43.13
2018-03-24T11:30:02.403Z,42.74
2018-03-24T11:31:02.697Z,42.46
2018-03-24T11:32:02.713Z,42.55
2018-03-24T11:33:02.796Z,42.46
2018-03-24T11:34:02.460Z,42.65
2018-03-24T11:35:02.479Z,42.07
2018-03-24T11:36:02.795Z,43.03
2018-03-24T11:37:02.797Z,42.57
2018-03-24T11:38:02.603Z,42.57
2018-03-24T11:39:02.836Z,42.84
2018-03-24T11:40:02.852Z,42.65
2018-03-24T11:41:02.873Z,42.84
2018-03-24T11:42:02.607Z,42.86
2018-03-24T11:43:02.908Z,42.77
2018-03-24T11:44:02.668Z,42.55
2018-03-24T11:45:03.043Z,42.84
2018-03-24T11:46:02.967Z,42.86
2018-03-24T11:47:02.986Z,42.84
2018-03-24T11:48:03.053Z,42.67
2018-03-24T11:49:03.023Z,42.86
2018-03-24T11:50:02.782Z,42.46
2018-03-24T11:51:02.770Z,42.07
2018-03-24T11:52:03.081Z,42.27
2018-03-24T11:53:03.092Z,41.88
2018-03-24T11:54:02.880Z,41.88
2018-03-24T11:55:03.129Z,41.97
2018-03-24T11:56:03.158Z,41.4
2018-03-24T11:57:03.169Z,41.6
2018-03-24T11:58:02.983Z,41.69
2018-03-24T11:59:03.206Z,41.11
2018-03-24T12:00:02.968Z,40.92
2018-03-24T12:01:02.959Z,40.92
2018-03-24T12:02:03.260Z,41.11
2018-03-24T12:03:02.996Z,40.92
2018-03-24T12:04:03.039Z,41.69
2018-03-24T12:05:03.313Z,42.07
2018-03-24T12:06:03.080Z,41.9
2018-03-24T12:07:03.363Z,41.69
2018-03-24T12:08:03.145Z,42
2018-03-24T12:09:03.109Z,41.4
2018-03-24T12:10:03.141Z,40.83
2018-03-24T12:11:03.448Z,41.02
2018-03-24T12:12:03.458Z,41.21
2018-03-24T12:13:03.761Z,41.02
2018-03-24T12:14:03.496Z,40.94
2018-03-24T12:15:03.514Z,41.04
2018-03-24T12:16:03.243Z,40.66
2018-03-24T12:17:03.545Z,40.64
2018-03-24T12:18:03.581Z,40.73
2018-03-24T12:19:03.585Z,41.04
2018-03-24T12:20:03.609Z,41.13
2018-03-24T12:21:03.622Z,41.04
2018-03-24T12:22:03.642Z,41.04
2018-03-24T12:23:03.373Z,40.75
2018-03-24T12:24:03.678Z,40.94
2018-03-24T12:25:03.412Z,41.13
2018-03-24T12:26:03.731Z,40.94
2018-03-24T12:27:03.452Z,40.66
2018-03-24T12:28:03.757Z,40.84
2018-03-24T12:29:03.490Z,40.27
2018-03-24T12:30:03.795Z,40.37
2018-03-24T12:31:03.529Z,40.56
2018-03-24T12:32:03.831Z,40.75
2018-03-24T12:33:03.890Z,40.66
2018-03-24T12:34:03.873Z,40.75
2018-03-24T12:35:03.886Z,40.75
2018-03-24T12:36:03.910Z,40.75
2018-03-24T12:37:03.641Z,40.56
2018-03-24T12:38:03.944Z,40.66
2018-03-24T12:39:03.683Z,40.84
2018-03-24T12:40:04.000Z,40.67
2018-03-24T12:41:04.003Z,40.96
2018-03-24T12:42:03.740Z,40.67
2018-03-24T12:43:04.044Z,40.77
2018-03-24T12:44:03.778Z,40.39
2018-03-24T12:45:04.078Z,40.48
2018-03-24T12:46:04.100Z,39.91
2018-03-24T12:47:04.119Z,40.48
2018-03-24T12:48:03.856Z,39.91
2018-03-24T12:49:04.155Z,39.91
2018-03-24T12:50:04.180Z,39.62
2018-03-24T12:51:04.199Z,39.43
2018-03-24T12:52:04.220Z,39.53
2018-03-24T12:53:03.951Z,40
2018-03-24T12:54:04.262Z,39.81
2018-03-24T12:55:03.991Z,39.81
2018-03-24T12:56:04.007Z,39.81